Time;durP1;ratioP1;P1;durP2;ratioP2;P2;SDS_P1;SDS_P2;PMS_P1;PMS_P2;Temp;Humidity;BMP_temperature;BMP_pressure;BME280_temperature;BME280_humidity;BME280_pressure;Samples;Min_cycle;Max_cycle;Signal;HPM_P1;HPM_P2
2022/03/31 00:00:57;;;;;;;7.43;6.07;;;9.50;64.00;;;12.59;49.34;100292.84;5016791;28;20192;-50
2022/03/31 00:03:26;;;;;;;6.47;5.77;;;9.50;64.00;;;12.58;49.25;100279.81;5018107;28;20197;-47
2022/03/31 00:05:54;;;;;;;6.77;5.60;;;9.50;64.10;;;12.57;49.33;100275.56;5017829;28;20219;-48
2022/03/31 00:08:21;;;;;;;7.23;6.03;;;9.40;64.00;;;12.54;49.28;100276.78;5016970;28;20231;-49
2022/03/31 00:10:52;;;;;;;6.83;5.37;;;9.40;64.20;;;12.50;49.17;100277.38;5015788;28;20198;-48
2022/03/31 00:13:22;;;;;;;6.10;5.50;;;9.30;64.00;;;12.47;49.33;100273.31;5017136;28;20196;-45
2022/03/31 00:15:50;;;;;;;7.80;6.23;;;9.30;64.70;;;12.46;50.05;100270.84;5016955;28;20215;-47
2022/03/31 00:18:17;;;;;;;5.93;5.07;;;9.30;64.90;;;12.45;50.04;100269.25;5016433;28;20219;-46
2022/03/31 00:20:46;;;;;;;6.20;5.60;;;9.30;64.80;;;12.41;49.70;100270.66;5016862;28;20195;-47
2022/03/31 00:23:13;;;;;;;6.23;5.30;;;9.30;65.00;;;12.36;49.97;100265.16;5016502;28;20684;-48
2022/03/31 00:25:41;;;;;;;6.40;4.93;;;9.30;65.10;;;12.35;50.42;100272.25;5015697;28;20195;-47
2022/03/31 00:28:08;;;;;;;5.87;5.37;;;9.20;65.10;;;12.35;50.67;100269.59;5016683;28;20230;-46
2022/03/31 00:30:36;;;;;;;5.63;5.00;;;9.20;65.90;;;12.36;50.66;100259.88;5016976;28;20202;-47
2022/03/31 00:33:04;;;;;;;6.43;4.87;;;9.20;65.80;;;12.37;50.29;100262.31;5017162;28;20195;-47
2022/03/31 00:35:31;;;;;;;5.83;5.20;;;9.20;66.00;;;12.38;50.44;100263.13;5016697;28;20241;-48
2022/03/31 00:38:00;;;;;;;5.20;4.67;;;9.20;65.80;;;12.34;50.59;100259.25;5016124;28;20203;-48
2022/03/31 00:40:29;;;;;;;5.57;4.83;;;9.20;65.80;;;12.27;50.68;100261.03;5016316;28;20193;-48
2022/03/31 00:42:58;;;;;;;4.83;4.30;;;9.20;65.80;;;12.19;50.88;100260.19;5006496;28;20202;-49
2022/03/31 00:45:29;;;;;;;4.43;3.90;;;9.20;66.00;;;12.14;50.98;100252.09;4996567;28;20188;-48
2022/03/31 00:47:56;;;;;;;5.23;4.73;;;9.10;66.10;;;12.10;51.13;100253.47;4996669;28;20215;-47
2022/03/31 00:50:26;;;;;;;6.70;4.50;;;9.10;66.40;;;12.08;51.19;100250.22;4996587;28;20562;-50
2022/03/31 00:52:54;;;;;;;5.87;3.77;;;9.00;66.60;;;12.03;51.70;100246.53;4997795;28;20223;-48
2022/03/31 00:55:45;;;;;;;4.37;3.97;;;9.00;66.80;;;11.95;51.26;100244.88;4999051;28;20225;-47
2022/03/31 00:58:14;;;;;;;6.53;4.70;;;9.00;66.80;;;11.92;51.83;100242.63;4997755;28;20208;-46
2022/03/31 01:00:41;;;;;;;5.97;4.40;;;8.90;67.10;;;11.89;51.60;100242.19;5015394;28;20303;-46
2022/03/31 01:03:09;;;;;;;5.23;4.23;;;8.90;67.20;;;11.86;51.82;100248.66;5015852;28;20633;-46
2022/03/31 01:05:40;;;;;;;4.33;3.93;;;8.80;67.30;;;11.83;51.76;100243.00;5016903;28;20271;-46
2022/03/31 01:08:08;;;;;;;5.97;4.13;;;8.80;67.10;;;11.82;52.00;100241.34;5016416;28;20207;-49
2022/03/31 01:10:36;;;;;;;4.20;3.80;;;8.80;67.40;;;11.81;51.90;100243.19;5015548;28;20191;-47
2022/03/31 01:13:07;;;;;;;4.43;3.70;;;8.80;67.70;;;11.79;52.15;100242.53;5015515;28;20198;-46
2022/03/31 01:15:35;;;;;;;4.30;3.40;;;8.80;67.60;;;11.78;51.78;100235.66;5012649;28;20207;-50
2022/03/31 01:18:03;;;;;;;3.80;3.00;;;8.70;67.50;;;11.79;52.45;100236.47;4995003;28;20306;-49
2022/03/31 01:20:33;;;;;;;4.87;3.97;;;8.70;67.80;;;11.79;52.11;100229.38;4995628;28;20560;-50
2022/03/31 01:23:01;;;;;;;4.40;4.00;;;8.70;67.80;;;11.80;52.12;100230.19;4996072;28;20655;-48
2022/03/31 01:25:30;;;;;;;4.40;3.43;;;8.80;68.10;;;11.78;52.24;100225.13;4995902;28;20192;-47
2022/03/31 01:27:57;;;;;;;6.07;3.70;;;8.80;67.70;;;11.77;52.26;100223.47;4995392;28;20212;-48
2022/03/31 01:30:25;;;;;;;4.37;3.90;;;8.80;67.50;;;11.79;52.06;100225.94;5014992;28;20541;-48
2022/03/31 01:32:52;;;;;;;3.67;3.00;;;8.70;67.50;;;11.80;51.69;100220.47;5014526;28;20199;-48
2022/03/31 01:35:20;;;;;;;4.60;3.70;;;8.70;67.70;;;11.81;51.97;100216.81;5015086;28;20223;-48
2022/03/31 01:37:47;;;;;;;4.20;3.40;;;8.70;67.60;;;11.83;51.80;100216.63;5014708;28;20215;-48
2022/03/31 01:40:15;;;;;;;5.47;3.43;;;8.70;67.60;;;11.85;51.58;100210.16;5015662;28;20191;-51
2022/03/31 01:42:45;;;;;;;5.47;3.93;;;8.70;67.70;;;11.87;51.60;100208.13;5014495;28;20184;-49
2022/03/31 01:45:15;;;;;;;4.27;3.63;;;8.70;67.60;;;11.89;52.18;100208.72;5015187;28;20195;-47
2022/03/31 01:47:44;;;;;;;4.97;4.03;;;8.70;68.00;;;11.92;51.55;100203.06;5015290;28;20298;-46
2022/03/31 01:50:12;;;;;;;4.23;3.40;;;8.80;67.80;;;11.96;51.93;100200.84;5001144;28;20687;-49
2022/03/31 01:52:41;;;;;;;4.23;3.40;;;8.80;67.70;;;12.01;51.58;100201.06;4997058;28;20203;-48
2022/03/31 01:55:10;;;;;;;5.50;3.33;;;8.80;67.70;;;12.06;51.39;100199.47;4995758;28;20554;-48
2022/03/31 01:57:38;;;;;;;4.13;3.13;;;8.90;67.50;;;12.09;51.30;100185.91;4995000;28;20222;-47
2022/03/31 02:00:09;;;;;;;4.83;3.20;;;9.00;66.90;;;12.11;51.01;100193.59;5011852;28;20615;-49
2022/03/31 02:02:37;;;;;;;3.37;3.07;;;9.00;66.40;;;12.14;50.51;100193.22;5014702;28;20191;-47
2022/03/31 02:05:06;;;;;;;5.80;3.97;;;9.00;66.20;;;12.17;50.99;100198.91;5014216;28;20202;-47
2022/03/31 02:07:34;;;;;;;4.47;3.73;;;9.00;66.30;;;12.21;50.46;100200.16;5013112;28;20222;-48
2022/03/31 02:10:01;;;;;;;6.37;3.47;;;9.10;66.00;;;12.22;50.61;100193.03;5014329;28;20206;-50
2022/03/31 02:12:29;;;;;;;3.67;3.30;;;9.00;65.80;;;12.21;50.20;100194.88;5014490;28;20649;-49
2022/03/31 02:14:56;;;;;;;5.53;3.60;;;9.00;66.40;;;12.21;50.13;100192.22;5015009;28;20221;-48
2022/03/31 02:17:25;;;;;;;6.17;3.60;;;9.00;65.50;;;12.17;50.06;100193.63;5013357;28;20223;-48
2022/03/31 02:19:52;;;;;;;4.40;4.00;;;9.00;65.50;;;12.12;50.24;100195.25;5014375;28;20179;-48
2022/03/31 02:22:19;;;;;;;4.57;3.40;;;9.00;65.30;;;12.05;50.30;100195.19;5013838;28;20666;-46
2022/03/31 02:24:48;;;;;;;7.73;3.30;;;8.90;65.40;;;11.98;49.90;100183.81;5013991;28;20187;-47
2022/03/31 02:27:15;;;;;;;5.10;3.53;;;8.90;65.30;;;11.93;49.88;100185.44;5014054;28;20313;-46
2022/03/31 02:29:42;;;;;;;3.80;3.50;;;8.90;65.30;;;11.84;50.24;100176.88;5014460;28;20199;-48
2022/03/31 02:32:09;;;;;;;5.70;3.70;;;8.80;64.80;;;11.76;50.11;100179.69;5013096;28;20195;-49
2022/03/31 02:34:38;;;;;;;5.50;3.60;;;8.80;65.00;;;11.66;49.99;100184.47;5014275;28;20238;-47
2022/03/31 02:37:06;;;;;;;4.20;3.00;;;8.70;64.40;;;11.58;50.42;100174.88;5014385;28;20233;-50
2022/03/31 02:39:33;;;;;;;6.17;3.83;;;8.70;64.40;;;11.55;50.62;100175.25;5020521;28;20195;-50
2022/03/31 02:42:03;;;;;;;4.20;3.40;;;8.60;64.80;;;11.55;50.72;100177.13;5019572;28;20207;-48
2022/03/31 02:44:30;;;;;;;3.80;3.07;;;8.60;65.10;;;11.53;50.37;100173.84;5014329;28;20199;-47
2022/03/31 02:46:58;;;;;;;4.83;3.10;;;8.50;64.60;;;11.51;50.54;100175.84;5001458;28;20219;-47
2022/03/31 02:49:25;;;;;;;5.17;3.50;;;8.50;65.00;;;11.46;50.37;100175.63;4994172;28;20198;-48
2022/03/31 02:51:54;;;;;;;5.70;3.83;;;8.50;64.80;;;11.42;50.37;100177.84;4994694;28;20680;-48
2022/03/31 02:57:07;;;;;;;5.03;3.27;;;8.40;65.00;;;11.25;51.17;100173.06;4993936;28;20215;-48
2022/03/31 02:59:34;;;;;;;4.30;3.17;;;8.40;65.10;;;11.23;50.68;100177.72;5006760;28;20202;-49
2022/03/31 03:02:01;;;;;;;4.60;3.83;;;8.30;65.30;;;11.16;50.64;100171.59;5012339;28;20695;-48
2022/03/31 03:04:29;;;;;;;5.50;3.70;;;8.30;65.20;;;11.08;51.22;100169.91;5013444;28;20249;-47
2022/03/31 03:06:58;;;;;;;5.17;3.67;;;8.20;65.30;;;11.02;51.59;100167.22;5013075;28;20553;-48
2022/03/31 03:09:25;;;;;;;4.37;3.30;;;8.20;65.80;;;11.01;51.99;100168.22;5013705;28;20600;-48
2022/03/31 03:11:53;;;;;;;3.90;3.50;;;8.10;66.10;;;10.99;51.28;100170.22;5013610;28;20238;-48
2022/03/31 03:14:21;;;;;;;4.57;3.70;;;8.10;66.10;;;11.00;51.99;100164.78;5009934;28;20287;-49
2022/03/31 03:16:49;;;;;;;5.10;3.77;;;8.10;66.40;;;10.98;51.04;100163.34;4993894;28;20220;-49
2022/03/31 03:19:16;;;;;;;4.80;3.20;;;8.00;66.00;;;10.94;51.53;100173.44;4993923;28;20294;-49
2022/03/31 03:21:43;;;;;;;5.80;3.80;;;8.00;66.00;;;10.93;51.23;100165.75;4993917;28;20192;-49
2022/03/31 03:24:12;;;;;;;4.80;3.10;;;8.00;66.00;;;10.93;51.58;100171.00;4994294;28;20195;-47
2022/03/31 03:26:39;;;;;;;5.93;3.57;;;7.90;66.20;;;10.87;51.14;100168.13;4993881;28;20726;-49
2022/03/31 03:29:07;;;;;;;4.20;3.33;;;7.90;66.00;;;10.81;51.14;100161.00;4994698;28;20192;-48
2022/03/31 03:31:34;;;;;;;3.73;3.10;;;7.90;65.90;;;10.79;51.29;100170.88;4993994;28;20534;-52
2022/03/31 03:34:01;;;;;;;4.67;3.60;;;7.80;66.30;;;10.79;52.18;100165.63;4994645;28;20689;-48
2022/03/31 03:36:29;;;;;;;4.93;3.40;;;7.80;66.90;;;10.79;51.79;100170.09;4997084;28;20215;-50
2022/03/31 03:38:57;;;;;;;2.87;2.67;;;7.80;66.60;;;10.72;51.28;100164.75;4997485;28;20667;-48
2022/03/31 03:41:26;;;;;;;3.67;3.17;;;7.70;66.40;;;10.63;51.67;100165.06;4997337;28;20196;-49
2022/03/31 03:43:53;;;;;;;4.00;3.00;;;7.70;66.20;;;10.57;51.79;100166.66;4998232;28;20200;-49
2022/03/31 03:46:21;;;;;;;4.20;3.30;;;7.60;66.90;;;10.54;52.36;100171.47;4996999;28;20198;-49
2022/03/31 03:48:48;;;;;;;4.37;2.63;;;7.60;66.90;;;10.49;52.57;100171.22;5002097;28;20188;-49
2022/03/31 03:51:15;;;;;;;3.20;2.90;;;7.60;66.90;;;10.46;52.27;100169.00;4997436;28;20681;-48
2022/03/31 03:53:43;;;;;;;3.80;2.97;;;7.60;66.90;;;10.42;51.72;100173.78;4997162;28;20192;-48
2022/03/31 03:56:10;;;;;;;5.33;3.37;;;7.50;66.80;;;10.42;52.54;100173.78;4996566;28;20250;-48
2022/03/31 03:58:39;;;;;;;5.07;2.87;;;7.50;67.70;;;10.42;52.20;100171.16;5013298;28;20230;-49
2022/03/31 04:01:06;;;;;;;3.67;3.10;;;7.40;67.50;;;10.40;52.50;100174.97;5016807;28;20218;-48
2022/03/31 04:03:33;;;;;;;3.60;2.90;;;7.40;67.30;;;10.36;52.11;100169.28;5016837;28;20638;-50
2022/03/31 04:06:02;;;;;;;3.87;3.03;;;7.40;67.10;;;10.31;52.53;100169.03;5016570;28;20191;-48
2022/03/31 04:08:29;;;;;;;3.23;2.93;;;7.30;67.20;;;10.27;52.38;100175.66;5016460;28;20689;-48
2022/03/31 04:10:56;;;;;;;4.27;3.10;;;7.30;67.20;;;10.26;52.71;100171.41;5015553;28;20614;-47
2022/03/31 04:13:23;;;;;;;3.47;2.97;;;7.30;67.50;;;10.24;52.46;100170.78;4997175;28;20590;-46
2022/03/31 04:15:52;;;;;;;4.10;2.90;;;7.30;67.60;;;10.24;52.15;100170.78;4996975;28;20208;-48
2022/03/31 04:18:19;;;;;;;3.00;2.80;;;7.20;67.50;;;10.27;52.39;100164.34;4996584;28;20694;-48
2022/03/31 04:20:52;;;;;;;4.73;2.50;;;7.20;68.00;;;10.30;52.18;100162.13;4996994;28;20242;-48
2022/03/31 04:23:19;;;;;;;2.83;2.53;;;7.20;67.60;;;10.35;52.42;100172.09;5000236;28;20196;-48
2022/03/31 04:25:47;;;;;;;3.00;2.67;;;7.30;67.50;;;10.37;52.15;100167.44;5001667;28;20605;-49
2022/03/31 04:28:14;;;;;;;3.97;2.70;;;7.30;67.50;;;10.39;52.00;100165.47;4998976;28;20291;-48
2022/03/31 04:30:41;;;;;;;3.10;2.47;;;7.30;67.20;;;10.41;51.94;100166.09;5016454;28;20653;-47
2022/03/31 04:33:10;;;;;;;3.17;2.60;;;7.30;67.10;;;10.40;51.16;100164.47;5019026;28;20265;-48
2022/03/31 04:35:38;;;;;;;3.93;2.70;;;7.30;66.60;;;10.37;51.34;100165.66;5017522;28;20285;-48
2022/03/31 04:38:05;;;;;;;2.90;2.43;;;7.30;66.20;;;10.32;51.68;100168.03;5015738;28;20211;-48
2022/03/31 04:40:34;;;;;;;2.90;2.53;;;7.20;66.10;;;10.24;50.76;100173.41;5015239;28;20649;-48
2022/03/31 04:43:02;;;;;;;2.40;2.20;;;7.20;65.70;;;10.13;51.43;100169.44;5015033;28;20270;-48
2022/03/31 04:45:29;;;;;;;3.00;2.40;;;7.20;65.80;;;10.08;51.53;100170.97;5015232;28;20554;-47
2022/03/31 04:47:56;;;;;;;3.30;3.00;;;7.10;66.40;;;10.02;51.31;100171.72;5015349;28;20215;-46
2022/03/31 04:50:25;;;;;;;2.57;2.37;;;7.00;66.20;;;9.97;51.90;100168.81;5015941;28;20653;-48
2022/03/31 04:52:52;;;;;;;1.83;1.73;;;7.00;66.60;;;9.96;51.66;100167.19;5015731;28;20203;-49
2022/03/31 04:55:20;;;;;;;2.20;2.00;;;6.90;66.40;;;9.94;51.43;100170.00;5000417;28;20197;-48
2022/03/31 04:57:47;;;;;;;3.67;2.30;;;6.90;66.30;;;9.92;52.13;100171.19;4995965;28;20227;-46
2022/03/31 05:00:15;;;;;;;2.40;2.23;;;6.90;66.90;;;9.92;52.14;100172.00;5014073;28;20195;-49
2022/03/31 05:02:42;;;;;;;2.50;2.30;;;6.80;66.70;;;9.91;51.66;100169.56;5015989;28;20197;-48
2022/03/31 05:05:12;;;;;;;3.13;2.37;;;6.80;66.60;;;9.92;51.96;100176.44;5015624;28;20184;-49
2022/03/31 05:07:41;;;;;;;2.10;1.90;;;6.80;66.60;;;9.89;52.03;100182.88;5014399;28;20211;-48
2022/03/31 05:10:09;;;;;;;2.23;2.13;;;6.80;67.00;;;9.89;51.75;100182.09;4996429;28;20294;-49
2022/03/31 05:12:39;;;;;;;3.20;2.90;;;6.80;67.10;;;9.89;51.71;100174.19;4995065;28;20191;-45
2022/03/31 05:15:08;;;;;;;2.50;2.30;;;6.70;66.60;;;9.86;51.95;100177.19;4996723;28;20226;-47
2022/03/31 05:17:36;;;;;;;2.47;2.30;;;6.70;67.20;;;9.87;52.24;100184.06;4996246;28;20228;-48
2022/03/31 05:20:06;;;;;;;2.13;2.03;;;6.80;67.60;;;9.85;51.76;100184.25;4996632;28;20271;-49
2022/03/31 05:22:35;;;;;;;3.20;3.00;;;6.80;67.10;;;9.79;52.09;100181.53;5002375;28;20270;-48
2022/03/31 05:25:07;;;;;;;2.93;2.63;;;6.70;66.70;;;9.72;52.26;100176.22;5015721;28;20223;-46
2022/03/31 05:27:40;;;;;;;2.60;2.40;;;6.70;67.00;;;9.69;52.16;100175.75;5014841;28;20215;-47
2022/03/31 05:30:08;;;;;;;5.57;5.07;;;6.70;67.10;;;9.68;52.14;100171.47;5016167;28;20199;-46
2022/03/31 05:32:36;;;;;;;5.17;3.77;;;6.60;67.40;;;9.63;52.57;100171.25;5016262;28;20187;-47
2022/03/31 05:35:04;;;;;;;3.70;3.40;;;6.60;67.40;;;9.58;52.26;100173.59;5015545;28;20195;-49
2022/03/31 05:37:33;;;;;;;4.50;4.10;;;6.60;67.50;;;9.53;52.72;100174.94;5015132;28;20223;-49
2022/03/31 05:40:03;;;;;;;3.73;3.40;;;6.50;67.60;;;9.50;52.56;100177.13;5015867;28;20204;-49
2022/03/31 05:42:33;;;;;;;4.10;3.80;;;6.50;67.90;;;9.45;52.71;100175.03;5015855;28;20216;-47
2022/03/31 05:45:03;;;;;;;3.80;3.50;;;6.50;68.30;;;9.43;52.93;100174.41;5015209;28;20189;-47
2022/03/31 05:47:30;;;;;;;4.70;4.07;;;6.50;68.20;;;9.42;53.34;100175.41;5014405;28;20326;-49
2022/03/31 05:49:58;;;;;;;4.70;4.20;;;6.40;68.50;;;9.41;53.26;100173.75;5015213;28;20199;-47
2022/03/31 05:52:31;;;;;;;5.20;4.70;;;6.40;68.30;;;9.39;53.50;100181.00;4995808;28;20304;-48
2022/03/31 05:55:00;;;;;;;4.77;4.37;;;6.40;68.20;;;9.38;53.11;100187.25;4994741;28;20270;-48
2022/03/31 05:57:27;;;;;;;4.80;4.37;;;6.40;68.50;;;9.37;53.33;100188.25;4994662;28;20228;-47
2022/03/31 05:59:56;;;;;;;4.83;4.43;;;6.40;68.70;;;9.39;53.21;100191.50;5010455;28;20200;-48
2022/03/31 06:02:23;;;;;;;5.33;4.87;;;6.40;68.70;;;9.37;53.44;100183.00;5014276;28;20292;-48
2022/03/31 06:05:11;;;;;;;5.87;5.23;;;6.40;68.90;;;9.32;53.81;100195.84;5008042;28;20249;-47
2022/03/31 06:07:38;;;;;;;5.20;4.70;;;6.40;68.80;;;9.26;53.35;100191.31;4994098;28;20230;-48
2022/03/31 06:10:07;;;;;;;6.37;5.63;;;6.40;68.50;;;9.22;53.56;100186.63;4994694;28;20599;-48
2022/03/31 06:12:35;;;;;;;6.00;5.47;;;6.30;68.60;;;9.21;54.18;100190.22;4995215;28;20219;-48
2022/03/31 06:15:06;;;;;;;5.60;5.00;;;6.30;69.20;;;9.21;53.99;100192.84;4994660;28;20200;-47
2022/03/31 06:17:34;;;;;;;9.67;8.67;;;6.30;69.60;;;9.26;54.31;100186.06;4994834;28;20234;-47
2022/03/31 06:20:01;;;;;;;7.00;6.30;;;6.30;69.80;;;9.31;54.17;100199.47;4995598;28;20534;-48
2022/03/31 06:22:29;;;;;;;9.90;8.83;;;6.30;69.60;;;9.35;54.00;100199.94;4996545;28;20227;-49
2022/03/31 06:24:56;;;;;;;13.17;10.10;;;6.30;69.60;;;9.39;54.25;100196.75;4996504;28;20219;-48
2022/03/31 06:27:24;;;;;;;7.30;6.60;;;6.40;69.70;;;9.39;53.46;100196.75;4996560;28;20208;-48
2022/03/31 06:29:52;;;;;;;6.27;5.67;;;6.40;69.20;;;9.36;53.43;100202.38;5004854;28;20200;-49
2022/03/31 06:32:21;;;;;;;6.57;5.97;;;6.40;68.90;;;9.36;53.49;100207.66;4994042;28;20239;-50
2022/03/31 06:34:49;;;;;;;6.80;6.20;;;6.40;69.20;;;9.34;53.51;100204.34;4994278;28;20262;-48
2022/03/31 06:37:17;;;;;;;6.40;5.90;;;6.40;69.10;;;9.37;53.21;100209.25;4994025;28;20221;-49
2022/03/31 06:39:44;;;;;;;17.83;14.87;;;6.40;69.20;;;9.37;53.71;100206.63;4994586;28;20203;-50
2022/03/31 06:42:11;;;;;;;11.27;7.57;;;6.30;69.40;;;9.40;54.12;100214.16;4994156;28;20670;-49
2022/03/31 06:44:39;;;;;;;7.67;6.87;;;6.40;69.70;;;9.40;53.84;100219.41;5003938;28;20222;-47
2022/03/31 06:47:07;;;;;;;8.20;7.40;;;6.40;69.60;;;9.41;53.81;100209.72;5013567;28;20291;-47
2022/03/31 06:49:36;;;;;;;7.77;6.80;;;6.40;69.40;;;9.43;53.79;100208.56;5013460;28;20577;-51
2022/03/31 06:52:04;;;;;;;18.33;15.27;;;6.40;69.40;;;9.42;53.65;100208.72;5013609;28;20271;-46
2022/03/31 06:54:34;;;;;;;11.57;9.97;;;6.40;69.40;;;9.39;53.58;100211.69;5013639;28;20195;-48
2022/03/31 06:57:02;;;;;;;9.43;8.37;;;6.40;69.30;;;9.37;53.54;100209.25;5012271;28;20223;-49
2022/03/31 06:59:31;;;;;;;10.57;9.53;;;6.40;69.60;;;9.37;53.83;100204.00;5011018;28;20225;-47
2022/03/31 07:01:58;;;;;;;8.57;7.70;;;6.40;69.90;;;9.38;54.16;100210.91;5013690;28;20190;-47
2022/03/31 07:04:26;;;;;;;9.80;8.70;;;6.40;70.00;;;9.45;54.29;100213.63;5013444;28;20195;-48
2022/03/31 07:06:55;;;;;;;13.60;8.90;;;6.40;70.30;;;9.45;53.87;100208.38;5012920;28;20548;-47
2022/03/31 07:09:22;;;;;;;8.20;7.40;;;6.40;69.80;;;9.44;54.19;100211.97;5013349;28;20213;-46
2022/03/31 07:11:50;;;;;;;9.53;8.47;;;6.40;69.60;;;9.43;53.84;100218.25;5013078;28;20192;-48
2022/03/31 07:14:18;;;;;;;10.17;8.70;;;6.40;69.70;;;9.48;54.31;100206.19;4994233;28;20599;-48
2022/03/31 07:16:46;;;;;;;11.33;8.77;;;6.50;70.30;;;9.57;53.79;100209.56;4993755;28;20299;-46
2022/03/31 07:19:17;;;;;;;8.77;7.80;;;6.50;70.10;;;9.63;53.58;100221.94;4994085;28;20223;-50
2022/03/31 07:21:44;;;;;;;8.27;7.40;;;6.60;69.80;;;9.64;53.76;100222.78;4994111;28;20196;-47
2022/03/31 07:24:13;;;;;;;8.33;7.00;;;6.60;69.60;;;9.69;53.63;100228.28;4994622;28;20219;-49
2022/03/31 07:26:40;;;;;;;9.17;8.20;;;6.60;69.60;;;9.72;53.29;100227.94;4997768;28;20207;-49
2022/03/31 07:29:08;;;;;;;11.13;10.03;;;6.60;69.50;;;9.77;53.34;100230.84;5013340;28;20229;-48
2022/03/31 07:31:36;;;;;;;10.37;8.63;;;6.70;69.70;;;9.79;53.02;100221.78;5013775;28;20720;-50
2022/03/31 07:34:04;;;;;;;9.50;8.57;;;6.70;69.60;;;9.79;53.13;100228.84;5013029;28;20199;-49
2022/03/31 07:36:31;;;;;;;12.17;10.93;;;6.70;69.30;;;9.79;53.65;100228.84;5015422;28;20222;-49
2022/03/31 07:38:58;;;;;;;10.87;9.20;;;6.70;69.40;;;9.86;53.48;100222.69;5012809;28;20654;-49
2022/03/31 07:41:27;;;;;;;12.07;10.87;;;6.80;69.80;;;9.96;53.16;100223.19;5004623;28;20658;-47
2022/03/31 07:43:54;;;;;;;11.77;10.07;;;6.80;69.80;;;10.05;53.22;100218.66;4994323;28;20215;-51
2022/03/31 07:46:22;;;;;;;9.60;8.70;;;6.90;69.50;;;10.08;53.33;100218.28;5019228;28;20218;-48
2022/03/31 07:48:49;;;;;;;11.33;9.20;;;7.00;69.50;;;10.07;53.10;100227.19;5014071;28;20226;-49
2022/03/31 07:51:17;;;;;;;11.27;10.17;;;6.90;68.90;;;10.03;53.43;100225.94;5005580;28;20218;-47
2022/03/31 07:53:45;;;;;;;9.13;8.20;;;6.90;69.20;;;10.03;53.28;100234.63;5011448;28;20201;-49
2022/03/31 07:56:12;;;;;;;9.30;8.30;;;6.90;69.40;;;10.08;53.10;100228.78;5013301;28;20551;-49
2022/03/31 07:58:41;;;;;;;9.20;8.23;;;7.00;69.50;;;10.14;53.13;100225.47;5011380;28;20571;-47
2022/03/31 08:01:08;;;;;;;9.57;7.90;;;7.00;69.60;;;10.17;53.39;100228.53;5013476;28;20214;-48
2022/03/31 08:03:35;;;;;;;9.37;8.47;;;7.00;69.30;;;10.20;53.38;100232.63;5007994;28;20615;-49
2022/03/31 08:06:03;;;;;;;9.17;8.30;;;7.00;69.50;;;10.24;52.48;100226.00;4993059;28;20196;-50
2022/03/31 08:08:31;;;;;;;8.90;7.87;;;7.10;69.20;;;10.29;52.91;100230.72;4993802;28;20591;-48
2022/03/31 08:10:59;;;;;;;10.03;8.00;;;7.10;69.10;;;10.30;53.30;100225.25;4994142;28;20184;-47
2022/03/31 08:13:28;;;;;;;8.57;7.73;;;7.20;69.30;;;10.32;52.84;100227.72;4995322;28;20202;-48
2022/03/31 08:16:00;;;;;;;8.63;7.80;;;7.20;68.80;;;10.33;52.35;100230.16;4998560;28;20219;-48
2022/03/31 08:18:32;;;;;;;11.67;9.53;;;7.20;68.80;;;10.42;52.96;100228.22;5012461;28;20230;-48
2022/03/31 08:21:00;;;;;;;8.63;7.80;;;7.20;69.20;;;10.46;52.38;100238.19;5014821;28;20274;-50
2022/03/31 08:23:27;;;;;;;9.17;8.37;;;7.30;69.20;;;10.53;52.09;100233.00;5010629;28;20229;-48
2022/03/31 08:25:55;;;;;;;9.20;8.37;;;7.30;68.80;;;10.52;52.47;100239.25;4997150;28;20207;-47
2022/03/31 08:28:25;;;;;;;8.83;7.93;;;7.30;68.40;;;10.50;52.16;100239.47;4999428;28;20215;-47
2022/03/31 08:30:52;;;;;;;8.77;7.80;;;7.40;68.50;;;10.51;52.20;100235.00;5006799;28;20204;-49
2022/03/31 08:33:21;;;;;;;12.17;8.57;;;7.40;68.10;;;10.48;52.11;100241.47;5002140;28;20193;-48
2022/03/31 08:35:49;;;;;;;11.03;9.40;;;7.40;68.50;;;10.47;52.58;100250.34;5016503;28;20692;-46
2022/03/31 08:38:17;;;;;;;11.83;10.63;;;7.30;68.40;;;10.51;52.28;100242.88;5016188;28;20717;-45
2022/03/31 08:40:48;;;;;;;8.27;7.47;;;7.40;68.80;;;10.49;52.87;100248.34;5016318;28;20254;-48
2022/03/31 08:43:16;;;;;;;9.60;8.60;;;7.40;68.80;;;10.48;52.80;100243.28;5001847;28;20262;-48
2022/03/31 08:45:49;;;;;;;10.67;9.57;;;7.40;68.50;;;10.57;53.21;100240.34;5000212;28;20216;-48
2022/03/31 08:48:16;;;;;;;12.37;10.17;;;7.40;69.50;;;10.72;52.67;100235.81;4998802;28;20278;-49
2022/03/31 08:50:45;;;;;;;10.03;9.07;;;7.50;69.50;;;10.94;52.67;100231.38;5001280;28;20196;-47
2022/03/31 08:53:12;;;;;;;8.90;7.57;;;7.60;69.70;;;11.13;52.17;100237.81;5015262;28;20203;-52
2022/03/31 08:55:40;;;;;;;8.97;7.80;;;7.70;69.60;;;11.31;52.06;100240.81;5015899;28;20190;-50
2022/03/31 08:58:09;;;;;;;8.63;7.57;;;7.90;69.20;;;11.47;51.29;100243.13;5015278;28;20219;-52
2022/03/31 09:00:36;;;;;;;9.83;8.93;;;8.00;69.00;;;11.60;50.33;100242.41;5015469;28;20209;-51
2022/03/31 09:03:07;;;;;;;8.90;8.00;;;8.10;67.90;;;11.66;50.30;100242.44;5010973;28;20207;-49
2022/03/31 09:05:37;;;;;;;10.53;8.67;;;8.20;67.30;;;11.71;49.93;100249.81;5012761;28;20199;-48
2022/03/31 09:08:09;;;;;;;9.13;8.27;;;8.20;66.70;;;11.69;50.05;100246.56;4996358;28;20225;-48
2022/03/31 09:10:42;;;;;;;7.77;7.07;;;8.30;66.60;;;11.63;50.42;100245.47;5001068;28;20200;-47
2022/03/31 09:13:22;;;;;;;9.60;8.30;;;8.40;66.70;;;11.60;50.14;100248.47;5004161;28;20530;-48
2022/03/31 09:15:53;;;;;;;10.60;7.80;;;8.40;66.40;;;11.54;50.22;100244.81;5005644;28;20385;-51
2022/03/31 09:18:24;;;;;;;8.17;7.33;;;8.40;65.60;;;11.49;50.42;100246.38;5005112;28;20289;-48
2022/03/31 09:20:55;;;;;;;9.63;7.30;;;8.30;66.10;;;11.50;51.02;100243.56;5004570;28;20211;-49
2022/03/31 09:23:28;;;;;;;8.93;7.97;;;8.30;66.70;;;11.56;50.49;100241.97;5004852;28;20199;-47
2022/03/31 09:26:06;;;;;;;7.53;6.83;;;8.40;67.00;;;11.64;50.40;100238.38;5005369;28;20204;-50
2022/03/31 09:28:34;;;;;;;7.83;7.07;;;8.40;66.30;;;11.71;50.58;100249.81;5005105;28;20218;-49
2022/03/31 09:31:01;;;;;;;8.10;7.30;;;8.40;66.30;;;11.78;50.56;100256.75;5005829;28;20240;-50
2022/03/31 09:33:32;;;;;;;8.03;7.30;;;8.50;66.60;;;11.78;49.61;100261.22;5005651;28;20658;-47
2022/03/31 09:36:05;;;;;;;8.87;7.97;;;8.50;65.70;;;11.76;49.71;100258.78;5007176;28;20217;-49
2022/03/31 09:38:36;;;;;;;11.77;9.30;;;8.50;65.70;;;11.76;50.23;100256.13;5009731;28;20241;-50
2022/03/31 09:41:17;;;;;;;7.83;7.00;;;8.60;65.90;;;11.75;50.02;100262.41;5007893;28;20209;-48
2022/03/31 09:43:46;;;;;;;8.20;7.40;;;8.60;65.70;;;11.82;49.92;100260.63;5009002;28;20206;-46
2022/03/31 09:46:18;;;;;;;8.77;7.27;;;8.60;66.30;;;11.84;49.99;100250.69;5012308;28;20215;-48
2022/03/31 09:48:48;;;;;;;8.53;7.53;;;8.70;65.90;;;11.80;50.35;100265.28;5011865;28;20205;-46
2022/03/31 09:51:16;;;;;;;12.67;10.63;;;8.70;65.80;;;11.79;50.15;100261.00;5007029;28;20234;-47
2022/03/31 09:53:47;;;;;;;9.60;8.57;;;8.70;65.80;;;11.74;49.69;100271.34;5004904;28;20198;-48
2022/03/31 09:56:18;;;;;;;7.20;6.50;;;8.70;65.10;;;11.67;49.87;100269.63;5007243;28;20298;-50
2022/03/31 09:58:46;;;;;;;7.77;6.97;;;8.60;64.80;;;11.62;50.05;100272.84;5006807;28;20216;-49
2022/03/31 10:01:16;;;;;;;8.50;7.43;;;8.60;64.70;;;11.62;49.93;100270.22;5009094;28;20291;-48
2022/03/31 10:03:44;;;;;;;8.27;7.23;;;8.60;65.30;;;11.64;50.04;100270.84;5010941;28;20281;-47
2022/03/31 10:06:13;;;;;;;7.63;6.93;;;8.60;65.30;;;11.62;50.11;100266.75;5012378;28;20208;-52
2022/03/31 10:08:46;;;;;;;7.00;6.40;;;8.60;64.70;;;11.60;49.68;100268.78;5013236;28;20241;-49
2022/03/31 10:11:19;;;;;;;7.13;6.43;;;8.60;64.70;;;11.59;49.40;100267.97;5010566;28;20202;-46
2022/03/31 10:14:01;;;;;;;6.63;5.97;;;8.60;64.40;;;11.50;49.89;100269.13;5008305;28;20198;-49
2022/03/31 10:16:42;;;;;;;8.23;6.97;;;8.50;64.20;;;11.45;49.69;100282.88;5025612;28;20338;-50
2022/03/31 10:19:10;;;;;;;6.57;5.97;;;8.50;64.20;;;11.45;49.61;100284.69;5019319;28;20278;-47
2022/03/31 10:21:37;;;;;;;7.13;6.47;;;8.50;64.30;;;11.35;49.78;100282.38;5020619;28;20207;-49
2022/03/31 10:27:01;;;;;;;8.23;6.97;;;8.40;63.90;;;11.11;50.66;100271.41;5017785;28;20226;-50
2022/03/31 10:29:41;;;;;;;6.97;6.37;;;8.30;64.30;;;11.12;49.94;100271.25;5022815;28;20217;-51
2022/03/31 10:32:17;;;;;;;8.43;6.67;;;8.30;64.70;;;11.11;49.92;100279.31;5028623;28;20228;-51